Time;durP1;ratioP1;P1;durP2;ratioP2;P2;SDS_P1;SDS_P2;PMS_P1;PMS_P2;Temp;Humidity;BMP_temperature;BMP_pressure;BME280_temperature;BME280_humidity;BME280_pressure;Samples;Min_cycle;Max_cycle;Signal;HPM_P1;HPM_P2
2021/06/10 00:00:06;;;;;;;9.15;8.25;;;20.40;99.90;;;;;;5030298;28;20033;-48
2021/06/10 00:02:32;;;;;;;9.00;8.18;;;20.40;99.90;;;;;;5012552;28;20037;-49
2021/06/10 00:04:57;;;;;;;8.52;7.72;;;20.30;99.90;;;;;;5012931;28;20041;-48
2021/06/10 00:07:23;;;;;;;8.70;7.82;;;20.30;99.90;;;;;;5012397;28;20021;-52
2021/06/10 00:09:49;;;;;;;8.65;7.93;;;20.30;99.90;;;;;;5030156;28;20049;-54
2021/06/10 00:12:17;;;;;;;9.05;7.88;;;20.30;99.90;;;;;;5030053;28;20032;-49
2021/06/10 00:14:43;;;;;;;8.73;7.93;;;20.30;99.90;;;;;;5030382;28;20415;-50
2021/06/10 00:17:09;;;;;;;9.73;7.43;;;20.20;99.90;;;;;;5030119;28;20025;-49
2021/06/10 00:19:35;;;;;;;11.15;8.38;;;20.30;99.90;;;;;;5030213;28;20025;-52
2021/06/10 00:22:01;;;;;;;9.57;8.70;;;20.30;99.90;;;;;;5030022;28;20087;-48
2021/06/10 00:24:26;;;;;;;11.73;8.82;;;20.30;99.90;;;;;;5030155;28;20487;-51
2021/06/10 00:26:52;;;;;;;10.07;7.63;;;20.30;99.90;;;;;;5030219;28;20036;-48
2021/06/10 00:29:17;;;;;;;10.02;8.60;;;20.30;99.90;;;;;;5030058;28;20022;-50
2021/06/10 00:31:43;;;;;;;10.70;9.70;;;20.20;99.90;;;;;;5029936;28;20101;-49
2021/06/10 00:34:08;;;;;;;12.00;9.70;;;20.20;99.90;;;;;;5030128;28;20108;-48
2021/06/10 00:36:34;;;;;;;11.63;10.50;;;20.20;99.90;;;;;;5029913;28;20105;-49
2021/06/10 00:39:00;;;;;;;16.08;11.82;;;20.10;99.90;;;;;;5029738;28;20088;-51
2021/06/10 00:41:34;;;;;;;14.25;12.85;;;20.00;99.90;;;;;;5048226;23;20030;-51
2021/06/10 00:44:00;;;;;;;17.60;13.90;;;20.00;99.90;;;;;;5047337;28;20052;-50
2021/06/10 00:46:27;;;;;;;14.85;12.95;;;19.90;99.90;;;;;;5064742;28;20023;-49
2021/06/10 00:48:52;;;;;;;12.82;11.52;;;19.90;99.90;;;;;;5048903;28;20029;-52
2021/06/10 00:51:18;;;;;;;13.57;11.73;;;19.90;99.90;;;;;;5049130;28;20428;-49
2021/06/10 00:53:43;;;;;;;14.13;12.60;;;19.90;99.90;;;;;;5047660;28;20112;-51
2021/06/10 00:56:11;;;;;;;14.15;11.63;;;20.00;99.90;;;;;;5047671;28;20029;-50
2021/06/10 00:58:37;;;;;;;17.85;13.38;;;19.90;99.90;;;;;;5048682;28;20380;-48
2021/06/10 01:01:03;;;;;;;17.55;14.25;;;20.00;99.90;;;;;;5049961;28;20059;-48
2021/06/10 01:03:28;;;;;;;18.58;15.48;;;20.00;99.90;;;;;;5052071;28;20064;-49
2021/06/10 01:06:01;;;;;;;15.35;13.65;;;20.00;99.90;;;;;;5052040;28;20072;-48
2021/06/10 01:08:39;;;;;;;17.90;14.38;;;19.90;99.90;;;;;;5052898;28;20021;-48
2021/06/10 01:11:20;;;;;;;15.82;14.25;;;19.70;99.90;;;;;;5053191;28;20086;-47
2021/06/10 01:14:29;;;;;;;14.30;12.82;;;19.60;99.90;;;;;;5053278;28;20472;-50
2021/06/10 01:16:58;;;;;;;17.42;12.05;;;19.50;99.90;;;;;;5053112;28;20136;-51
2021/06/10 01:19:59;;;;;;;15.77;12.38;;;19.50;99.90;;;;;;5052592;28;20036;-47
2021/06/10 01:22:32;;;;;;;12.65;11.35;;;19.50;99.90;;;;;;5052661;28;20039;-49
2021/06/10 01:25:08;;;;;;;18.58;10.98;;;19.50;99.90;;;;;;5053095;28;20036;-47
2021/06/10 01:27:38;;;;;;;12.35;10.07;;;19.50;99.90;;;;;;5052912;28;20033;-48
2021/06/10 01:30:17;;;;;;;11.40;10.40;;;19.50;99.90;;;;;;5050870;28;20021;-49
2021/06/10 01:32:50;;;;;;;14.63;12.50;;;19.50;99.90;;;;;;5052686;28;20039;-47
2021/06/10 01:35:18;;;;;;;12.40;11.10;;;19.40;99.90;;;;;;5052998;28;20407;-50
2021/06/10 01:37:45;;;;;;;26.85;11.98;;;19.40;99.90;;;;;;5052796;28;20063;-49
2021/06/10 01:40:13;;;;;;;14.15;11.48;;;19.40;99.90;;;;;;5052108;28;20507;-47
2021/06/10 01:42:39;;;;;;;12.13;10.20;;;19.40;99.90;;;;;;5050753;28;20395;-48
2021/06/10 01:45:08;;;;;;;14.05;12.63;;;19.40;99.90;;;;;;5052058;28;20021;-52
2021/06/10 01:47:35;;;;;;;13.38;12.07;;;19.20;99.90;;;;;;5052547;28;20017;-47
2021/06/10 01:50:02;;;;;;;14.10;11.77;;;19.20;99.90;;;;;;5032116;28;20551;-53
2021/06/10 01:52:28;;;;;;;19.75;13.90;;;19.20;99.90;;;;;;5032582;28;20017;-47
2021/06/10 01:54:55;;;;;;;16.88;13.23;;;19.20;99.90;;;;;;5051639;28;20428;-49
2021/06/10 01:57:21;;;;;;;16.08;13.80;;;19.20;99.90;;;;;;5050312;28;20116;-49
2021/06/10 01:59:48;;;;;;;13.95;12.50;;;19.10;99.90;;;;;;5051754;28;20100;-48
2021/06/10 02:02:14;;;;;;;17.27;12.80;;;19.10;99.90;;;;;;5051280;28;20086;-47
2021/06/10 02:04:41;;;;;;;13.77;12.48;;;19.10;99.90;;;;;;5052198;28;20018;-47
2021/06/10 02:07:08;;;;;;;16.13;12.63;;;19.10;99.90;;;;;;5049199;28;20025;-50
2021/06/10 02:09:34;;;;;;;15.70;12.88;;;19.10;99.90;;;;;;5051529;28;20033;-47
2021/06/10 02:12:00;;;;;;;17.05;14.10;;;19.10;99.90;;;;;;5051603;28;20021;-47
2021/06/10 02:14:27;;;;;;;17.77;14.13;;;19.10;99.90;;;;;;5050835;28;20445;-47
2021/06/10 02:16:53;;;;;;;16.20;14.57;;;19.00;99.90;;;;;;5052245;28;20037;-47
2021/06/10 02:19:19;;;;;;;14.63;13.13;;;19.00;99.90;;;;;;5051518;28;20119;-51
2021/06/10 02:21:45;;;;;;;16.67;15.02;;;19.00;99.90;;;;;;5051984;28;20155;-52
2021/06/10 02:24:12;;;;;;;15.55;14.00;;;19.00;99.90;;;;;;5052032;28;20028;-47
2021/06/10 02:26:39;;;;;;;14.45;12.95;;;19.00;99.90;;;;;;5050603;28;20025;-48
2021/06/10 02:29:05;;;;;;;13.48;12.15;;;19.10;99.90;;;;;;5049884;28;20047;-47
2021/06/10 02:31:31;;;;;;;13.95;12.20;;;19.10;99.90;;;;;;5051836;28;20040;-47
2021/06/10 02:33:57;;;;;;;14.40;11.45;;;19.10;99.90;;;;;;5051783;28;20021;-47
2021/06/10 02:36:23;;;;;;;13.32;12.10;;;19.00;99.90;;;;;;5051495;28;20029;-49
2021/06/10 02:38:59;;;;;;;14.43;13.00;;;19.00;99.90;;;;;;5049904;28;20524;-49
2021/06/10 02:41:28;;;;;;;20.13;11.95;;;19.00;99.90;;;;;;5033343;28;20032;-49
2021/06/10 02:43:56;;;;;;;15.20;13.07;;;18.90;99.90;;;;;;5051497;28;20116;-46
2021/06/10 02:46:22;;;;;;;12.40;11.20;;;19.00;99.90;;;;;;5051350;28;20020;-47
2021/06/10 02:48:49;;;;;;;15.93;10.80;;;19.00;99.90;;;;;;5050558;28;20484;-45
2021/06/10 02:51:16;;;;;;;15.48;12.18;;;18.90;99.90;;;;;;5051217;28;20033;-48
2021/06/10 02:53:44;;;;;;;16.05;11.90;;;19.00;99.90;;;;;;5051173;28;20037;-48
2021/06/10 02:56:10;;;;;;;15.40;12.32;;;18.90;99.90;;;;;;5051316;28;20025;-47
2021/06/10 02:58:40;;;;;;;13.35;11.55;;;18.80;99.90;;;;;;5050367;28;20634;-47
2021/06/10 03:01:06;;;;;;;13.07;11.68;;;18.80;99.90;;;;;;5051146;28;20542;-50
2021/06/10 03:03:35;;;;;;;13.65;11.60;;;18.80;99.90;;;;;;5050854;28;20025;-47
2021/06/10 03:06:01;;;;;;;14.43;10.90;;;18.80;99.90;;;;;;5051318;28;20027;-52
2021/06/10 03:08:28;;;;;;;14.43;12.93;;;18.80;99.90;;;;;;5050310;28;20447;-51
2021/06/10 03:10:58;;;;;;;13.88;12.27;;;18.80;99.90;;;;;;5050915;28;20400;-48
2021/06/10 03:13:24;;;;;;;13.93;12.07;;;18.70;99.90;;;;;;5050867;28;20025;-49
2021/06/10 03:15:50;;;;;;;19.75;16.70;;;18.70;99.90;;;;;;5050878;28;20025;-50
2021/06/10 03:18:17;;;;;;;17.23;15.45;;;18.80;99.90;;;;;;5050434;28;20082;-53
2021/06/10 03:20:44;;;;;;;22.80;17.90;;;18.90;99.90;;;;;;5050037;28;20501;-49
2021/06/10 03:23:10;;;;;;;17.73;15.85;;;18.90;99.90;;;;;;5049653;28;20033;-53
2021/06/10 03:25:37;;;;;;;18.20;16.33;;;18.90;99.90;;;;;;5050477;28;20143;-51
2021/06/10 03:28:04;;;;;;;17.52;15.07;;;18.90;99.90;;;;;;5050540;28;20159;-48
2021/06/10 03:30:29;;;;;;;15.38;13.88;;;18.80;99.90;;;;;;5050158;28;20040;-48
2021/06/10 03:32:56;;;;;;;14.60;13.23;;;18.80;99.90;;;;;;5050517;28;20021;-47
2021/06/10 03:35:22;;;;;;;14.05;12.57;;;18.70;99.90;;;;;;5050834;28;20017;-48
2021/06/10 03:37:48;;;;;;;19.88;14.20;;;18.70;99.90;;;;;;5050644;28;20021;-46
2021/06/10 03:40:16;;;;;;;19.02;13.55;;;18.70;99.90;;;;;;5050096;28;20039;-48
2021/06/10 03:42:42;;;;;;;18.23;11.73;;;18.60;99.90;;;;;;5050484;28;20036;-49
2021/06/10 03:45:09;;;;;;;15.35;13.32;;;18.60;99.90;;;;;;5051108;28;20021;-47
2021/06/10 03:47:36;;;;;;;15.43;13.40;;;18.50;99.90;;;;;;5050549;28;20029;-49
2021/06/10 03:50:02;;;;;;;19.42;15.63;;;18.50;99.90;;;;;;5050161;28;20100;-48
2021/06/10 03:52:28;;;;;;;20.73;13.65;;;18.40;99.90;;;;;;5050085;28;20120;-49
2021/06/10 03:54:57;;;;;;;17.25;15.45;;;18.40;99.90;;;;;;5050738;28;20162;-49
2021/06/10 03:57:23;;;;;;;20.70;16.35;;;18.50;99.90;;;;;;5050374;28;20067;-48
2021/06/10 03:59:49;;;;;;;18.13;16.17;;;18.50;99.90;;;;;;5048572;28;20047;-50
2021/06/10 04:02:14;;;;;;;25.48;17.02;;;18.60;99.90;;;;;;5050360;28;20025;-48
2021/06/10 04:04:39;;;;;;;20.98;16.45;;;18.70;99.90;;;;;;5050009;28;20064;-47
2021/06/10 04:07:05;;;;;;;19.35;17.15;;;18.90;99.90;;;;;;5048720;28;20143;-47
2021/06/10 04:09:31;;;;;;;21.02;16.90;;;18.90;99.90;;;;;;5049373;28;20074;-49
2021/06/10 04:11:57;;;;;;;14.98;13.48;;;18.90;99.90;;;;;;5050277;28;20400;-49
2021/06/10 04:14:22;;;;;;;15.45;13.32;;;18.80;99.90;;;;;;5049775;28;20028;-51
2021/06/10 04:16:48;;;;;;;20.35;13.77;;;18.80;99.90;;;;;;5050117;28;20051;-49
2021/06/10 04:19:14;;;;;;;18.33;14.35;;;18.80;99.90;;;;;;5048987;28;20539;-47
2021/06/10 04:21:39;;;;;;;14.15;12.82;;;18.80;99.90;;;;;;5049952;28;20349;-52
2021/06/10 04:24:05;;;;;;;14.52;12.80;;;18.80;99.90;;;;;;5049372;28;20036;-50
2021/06/10 04:26:31;;;;;;;13.77;12.52;;;18.90;99.90;;;;;;5049890;28;20025;-47
2021/06/10 04:28:56;;;;;;;14.23;12.75;;;19.00;99.90;;;;;;5048781;28;20021;-47
2021/06/10 04:31:22;;;;;;;14.32;12.32;;;19.00;99.90;;;;;;5049630;28;20068;-49
2021/06/10 04:33:48;;;;;;;13.77;12.45;;;19.10;99.90;;;;;;5049436;28;20341;-48
2021/06/10 04:36:15;;;;;;;13.75;12.35;;;19.20;99.90;;;;;;5049663;28;20078;-48
2021/06/10 04:38:41;;;;;;;16.65;14.93;;;19.20;99.90;;;;;;5047824;28;20028;-49
2021/06/10 04:41:08;;;;;;;17.80;14.80;;;19.30;99.90;;;;;;5049635;28;20029;-50
2021/06/10 04:43:34;;;;;;;17.70;14.85;;;19.40;99.90;;;;;;5049032;28;20025;-50
2021/06/10 04:46:00;;;;;;;16.83;14.50;;;19.40;99.90;;;;;;5049525;28;20203;-48
2021/06/10 04:48:26;;;;;;;21.55;16.25;;;19.50;99.90;;;;;;5048480;28;20694;-49
2021/06/10 04:50:52;;;;;;;24.23;15.75;;;19.50;99.90;;;;;;5049176;28;20070;-52
2021/06/10 04:53:19;;;;;;;17.98;16.17;;;19.50;99.90;;;;;;5049030;28;20029;-50
2021/06/10 04:55:45;;;;;;;16.83;15.13;;;19.60;99.90;;;;;;5049361;28;20086;-53
2021/06/10 04:58:10;;;;;;;21.55;16.77;;;19.60;99.90;;;;;;5049179;28;20032;-46
2021/06/10 05:00:38;;;;;;;17.48;15.68;;;19.80;99.90;;;;;;5046478;28;20116;-50
2021/06/10 05:03:05;;;;;;;21.42;15.73;;;19.90;99.90;;;;;;5048653;28;20364;-50
2021/06/10 05:05:31;;;;;;;22.13;16.70;;;20.00;99.90;;;;;;5049052;28;20029;-47
2021/06/10 05:07:56;;;;;;;16.67;14.90;;;20.10;99.90;;;;;;5049576;28;20025;-51
2021/06/10 05:10:21;;;;;;;19.75;14.68;;;20.10;99.90;;;;;;5048987;28;20488;-51
2021/06/10 05:12:47;;;;;;;17.58;15.43;;;20.10;99.90;;;;;;5049634;28;20064;-49
2021/06/10 05:15:13;;;;;;;19.02;15.35;;;20.10;99.90;;;;;;5049615;28;20044;-47
2021/06/10 05:17:39;;;;;;;16.45;14.43;;;20.00;99.90;;;;;;5049704;28;20025;-47
2021/06/10 05:20:05;;;;;;;16.60;14.30;;;20.10;99.90;;;;;;5049048;28;20032;-50
2021/06/10 05:22:30;;;;;;;16.95;13.13;;;20.20;99.90;;;;;;5049595;28;20029;-50
2021/06/10 05:24:56;;;;;;;17.98;13.35;;;20.10;99.90;;;;;;5049784;28;20033;-51
2021/06/10 05:27:21;;;;;;;17.65;14.32;;;20.00;99.90;;;;;;5049789;28;20031;-49
2021/06/10 05:29:47;;;;;;;18.55;15.13;;;20.00;99.90;;;;;;5049000;28;20024;-50
2021/06/10 05:32:13;;;;;;;22.73;16.48;;;19.90;99.90;;;;;;5049639;28;20384;-48
2021/06/10 05:34:38;;;;;;;17.13;15.40;;;19.90;99.90;;;;;;5049727;28;20087;-50
2021/06/10 05:37:04;;;;;;;16.10;14.45;;;19.80;99.90;;;;;;5049751;28;20017;-50
2021/06/10 05:39:29;;;;;;;17.60;13.82;;;19.80;99.90;;;;;;5047620;28;20029;-50
2021/06/10 05:41:56;;;;;;;15.43;12.70;;;19.90;99.90;;;;;;5048164;28;20091;-49
2021/06/10 05:44:21;;;;;;;16.35;14.75;;;20.10;99.90;;;;;;5049616;28;20071;-52
2021/06/10 05:46:50;;;;;;;16.95;13.80;;;20.30;99.90;;;;;;5051191;28;20021;-51
2021/06/10 05:49:17;;;;;;;14.48;13.07;;;20.50;99.90;;;;;;5052644;28;20028;-50
2021/06/10 05:51:42;;;;;;;15.68;13.60;;;20.70;99.90;;;;;;5053205;28;20391;-47
2021/06/10 05:54:09;;;;;;;19.00;14.77;;;20.90;99.90;;;;;;5053239;28;20025;-47
2021/06/10 05:56:34;;;;;;;16.13;14.35;;;21.10;99.90;;;;;;5053245;28;20025;-48
2021/06/10 05:59:00;;;;;;;17.30;13.73;;;21.20;99.90;;;;;;5052390;28;20082;-53
2021/06/10 06:01:26;;;;;;;18.20;14.85;;;21.40;99.90;;;;;;5053103;28;20392;-52
2021/06/10 06:03:51;;;;;;;16.75;14.52;;;21.50;99.90;;;;;;5053058;28;20125;-48
2021/06/10 06:06:18;;;;;;;18.98;15.25;;;21.70;99.90;;;;;;5052874;28;20021;-48
2021/06/10 06:08:45;;;;;;;17.30;14.73;;;21.80;99.90;;;;;;5052281;28;20494;-51
2021/06/10 06:11:10;;;;;;;16.42;14.25;;;21.90;99.90;;;;;;5052140;28;20130;-51
2021/06/10 06:13:47;;;;;;;15.65;13.90;;;21.90;99.90;;;;;;5053228;28;20512;-49
2021/06/10 06:16:18;;;;;;;14.57;13.10;;;22.00;99.90;;;;;;5052849;28;20035;-47
2021/06/10 06:18:44;;;;;;;16.98;15.25;;;22.10;99.90;;;;;;5052213;28;20519;-47
2021/06/10 06:21:11;;;;;;;15.60;14.00;;;22.20;99.90;;;;;;5052801;28;20033;-49
2021/06/10 06:23:36;;;;;;;18.08;15.57;;;22.30;99.90;;;;;;5052574;28;20029;-49
2021/06/10 06:26:03;;;;;;;19.65;14.93;;;22.40;99.90;;;;;;5052752;28;20031;-51
2021/06/10 06:28:28;;;;;;;16.45;14.52;;;22.50;99.90;;;;;;5051843;28;20504;-49
2021/06/10 06:30:54;;;;;;;17.10;15.30;;;22.60;99.90;;;;;;5052517;28;20029;-50
2021/06/10 06:33:20;;;;;;;14.85;13.45;;;22.60;99.90;;;;;;5052725;28;20082;-47
2021/06/10 06:35:46;;;;;;;14.90;13.50;;;22.70;99.90;;;;;;5050881;28;20057;-48
2021/06/10 06:38:12;;;;;;;14.48;12.60;;;22.80;99.90;;;;;;5052199;28;20032;-47
2021/06/10 06:40:39;;;;;;;15.30;13.65;;;23.00;99.90;;;;;;5050243;28;20028;-47
2021/06/10 06:43:06;;;;;;;21.10;16.45;;;23.10;99.90;;;;;;5069897;22;20470;-47
2021/06/10 06:45:33;;;;;;;14.60;13.20;;;23.10;99.90;;;;;;5053316;28;20364;-45
2021/06/10 06:47:59;;;;;;;16.33;13.50;;;23.10;99.90;;;;;;5053183;28;20066;-52
2021/06/10 06:50:25;;;;;;;15.45;12.90;;;23.10;99.90;;;;;;5051521;28;20025;-48
2021/06/10 06:52:50;;;;;;;17.73;13.65;;;22.90;99.90;;;;;;5034443;28;20059;-49
2021/06/10 06:55:16;;;;;;;12.80;11.68;;;22.90;99.90;;;;;;5052355;28;20029;-47
2021/06/10 06:57:41;;;;;;;13.88;11.90;;;22.80;99.90;;;;;;5052008;28;20557;-48
2021/06/10 07:00:07;;;;;;;14.35;12.25;;;22.80;99.90;;;;;;5051753;28;20029;-50
2021/06/10 07:02:34;;;;;;;14.18;12.73;;;22.60;99.90;;;;;;5052169;28;20060;-49
2021/06/10 07:04:59;;;;;;;13.88;12.10;;;22.60;99.90;;;;;;5052137;28;20029;-46
2021/06/10 07:07:25;;;;;;;14.18;12.75;;;22.60;99.90;;;;;;5052157;28;20514;-46
2021/06/10 07:09:50;;;;;;;14.52;12.85;;;22.60;99.90;;;;;;5050292;28;20074;-46
2021/06/10 07:12:16;;;;;;;14.27;11.90;;;22.60;99.90;;;;;;5051863;28;20469;-46
2021/06/10 07:14:43;;;;;;;13.98;11.98;;;22.70;99.90;;;;;;5051704;28;20029;-52
2021/06/10 07:17:08;;;;;;;21.70;14.75;;;22.80;99.90;;;;;;5052026;28;20033;-43
2021/06/10 07:19:34;;;;;;;17.33;13.40;;;23.00;99.90;;;;;;5051077;28;20545;-46
2021/06/10 07:22:00;;;;;;;14.00;12.60;;;23.20;99.90;;;;;;5051825;28;20020;-44
2021/06/10 07:24:25;;;;;;;12.45;11.20;;;23.20;99.90;;;;;;5051795;28;20024;-43
2021/06/10 07:26:52;;;;;;;15.63;13.77;;;23.30;99.90;;;;;;5033966;28;20498;-44
2021/06/10 07:29:18;;;;;;;13.88;12.48;;;23.30;99.40;;;;;;5050951;28;20445;-43
2021/06/10 07:31:44;;;;;;;14.45;13.05;;;23.40;99.00;;;;;;5051741;28;20025;-43
2021/06/10 07:34:09;;;;;;;11.65;10.52;;;23.50;99.00;;;;;;5051941;28;20033;-43
2021/06/10 07:36:36;;;;;;;15.52;10.68;;;23.60;98.60;;;;;;5052764;28;20495;-43
2021/06/10 07:39:05;;;;;;;12.70;10.35;;;23.70;98.50;;;;;;5054523;28;20032;-42
2021/06/10 07:41:31;;;;;;;13.13;11.88;;;24.00;98.70;;;;;;5054941;28;20029;-45
2021/06/10 07:43:56;;;;;;;12.00;10.90;;;24.50;98.10;;;;;;5053383;28;20029;-49
2021/06/10 07:46:22;;;;;;;11.15;10.05;;;25.30;97.10;;;;;;5049547;28;20017;-46
2021/06/10 07:48:47;;;;;;;13.77;9.70;;;26.20;95.50;;;;;;5050451;28;20029;-46
2021/06/10 07:51:14;;;;;;;11.82;9.07;;;27.20;93.90;;;;;;5050535;28;20029;-48
2021/06/10 07:53:40;;;;;;;8.18;7.45;;;28.10;92.40;;;;;;5050429;28;20399;-49
2021/06/10 07:56:06;;;;;;;9.35;8.27;;;28.80;91.00;;;;;;5050950;28;20549;-46
2021/06/10 07:58:33;;;;;;;11.40;10.30;;;29.30;90.00;;;;;;5049105;28;20116;-46
2021/06/10 08:00:59;;;;;;;11.93;10.68;;;29.80;87.60;;;;;;5049236;28;20475;-46
2021/06/10 08:03:25;;;;;;;11.10;9.25;;;30.00;85.60;;;;;;5049457;28;20090;-52
2021/06/10 08:05:52;;;;;;;9.80;8.88;;;30.30;84.20;;;;;;5050816;28;20045;-53
2021/06/10 08:08:18;;;;;;;10.25;7.93;;;30.70;82.90;;;;;;5051195;28;20143;-50
2021/06/10 08:10:45;;;;;;;11.10;10.00;;;31.00;82.60;;;;;;5050692;28;20096;-46
2021/06/10 08:13:11;;;;;;;12.18;9.93;;;31.20;82.20;;;;;;5051739;28;20270;-44
2021/06/10 08:15:38;;;;;;;15.75;11.20;;;31.40;80.70;;;;;;5046228;28;20033;-49
2021/06/10 08:18:04;;;;;;;15.48;9.68;;;31.60;80.10;;;;;;5049851;28;20376;-41
2021/06/10 08:20:30;;;;;;;9.85;8.85;;;31.40;80.60;;;;;;5049609;28;20064;-47
2021/06/10 08:23:00;;;;;;;10.27;9.27;;;31.00;81.00;;;;;;5034450;28;20034;-44
2021/06/10 08:25:28;;;;;;;10.40;9.38;;;30.70;81.20;;;;;;5049798;28;20094;-46
2021/06/10 08:27:55;;;;;;;10.85;9.85;;;30.00;83.00;;;;;;5049705;28;20032;-44
2021/06/10 08:30:21;;;;;;;16.77;11.13;;;29.70;82.80;;;;;;5050030;28;20519;-48
2021/06/10 08:32:47;;;;;;;15.95;10.23;;;29.60;83.20;;;;;;5054070;28;20036;-48
2021/06/10 08:35:13;;;;;;;18.70;10.93;;;29.50;83.20;;;;;;5050026;28;20116;-50
2021/06/10 08:37:38;;;;;;;13.02;11.73;;;29.60;83.40;;;;;;5049563;28;20047;-51
2021/06/10 08:40:08;;;;;;;11.30;10.15;;;29.70;82.50;;;;;;5049741;28;20551;-45
2021/06/10 08:42:36;;;;;;;12.00;10.80;;;29.80;83.90;;;;;;5049787;28;20494;-51
2021/06/10 08:45:03;;;;;;;12.55;11.35;;;29.70;84.50;;;;;;5049250;28;20040;-48
2021/06/10 08:47:30;;;;;;;12.75;10.63;;;29.60;84.30;;;;;;5049019;28;20096;-51
2021/06/10 08:49:56;;;;;;;10.50;9.60;;;29.50;85.10;;;;;;5049415;28;20029;-51
2021/06/10 08:52:21;;;;;;;10.80;9.70;;;29.60;85.10;;;;;;5049098;28;20035;-47
2021/06/10 08:54:47;;;;;;;9.73;8.73;;;29.80;84.80;;;;;;5049404;28;20033;-51
2021/06/10 08:57:12;;;;;;;10.20;9.20;;;30.00;84.50;;;;;;5049354;28;20549;-46
2021/06/10 08:59:39;;;;;;;9.55;8.60;;;30.20;83.50;;;;;;5048924;28;20029;-46
2021/06/10 09:02:04;;;;;;;11.80;7.82;;;30.30;83.20;;;;;;5049538;28;20094;-47
2021/06/10 09:04:31;;;;;;;11.10;9.95;;;30.50;83.10;;;;;;5049624;28;20033;-47
2021/06/10 09:06:59;;;;;;;11.38;10.32;;;30.70;82.40;;;;;;5048970;28;20020;-50
2021/06/10 09:09:48;;;;;;;11.25;10.15;;;30.90;81.30;;;;;;5048474;28;20022;-48
2021/06/10 09:12:13;;;;;;;11.55;8.13;;;30.70;80.80;;;;;;5049528;28;20063;-46
2021/06/10 09:15:01;;;;;;;10.40;9.30;;;30.70;82.40;;;;;;5049252;28;20036;-48
2021/06/10 09:17:34;;;;;;;14.05;11.23;;;30.80;82.30;;;;;;5048872;28;20068;-53
2021/06/10 09:20:01;;;;;;;12.88;11.15;;;30.70;80.10;;;;;;5049177;28;20040;-44
2021/06/10 09:22:28;;;;;;;11.95;10.88;;;30.40;81.10;;;;;;5052197;28;20502;-50
2021/06/10 09:25:08;;;;;;;15.48;11.48;;;30.30;82.10;;;;;;5035483;28;20029;-50
2021/06/10 09:27:33;;;;;;;12.27;11.07;;;29.90;81.60;;;;;;5052800;28;20047;-46
2021/06/10 09:30:00;;;;;;;13.25;10.13;;;29.60;83.00;;;;;;5052960;28;20025;-43
2021/06/10 09:32:29;;;;;;;9.38;8.40;;;29.60;83.40;;;;;;5053039;28;20438;-45
2021/06/10 09:35:01;;;;;;;12.43;8.93;;;29.60;83.70;;;;;;5053057;28;20025;-47
2021/06/10 09:37:32;;;;;;;9.38;8.20;;;29.60;81.10;;;;;;5052688;28;20104;-50
2021/06/10 09:40:00;;;;;;;9.30;8.40;;;29.50;81.10;;;;;;5052436;28;20021;-48
2021/06/10 09:42:33;;;;;;;9.73;8.73;;;29.60;82.50;;;;;;5053058;28;20029;-49
2021/06/10 09:45:00;;;;;;;11.73;10.48;;;29.50;82.40;;;;;;5053461;28;20108;-44
2021/06/10 09:47:40;;;;;;;8.48;7.78;;;29.50;80.70;;;;;;5053416;28;20108;-58
2021/06/10 09:50:19;;;;;;;8.20;7.40;;;29.50;77.40;;;;;;5052752;28;20025;-49
2021/06/10 09:52:50;;;;;;;6.57;6.07;;;29.40;77.30;;;;;;5053071;28;20044;-52
2021/06/10 09:55:26;;;;;;;11.02;8.98;;;29.50;81.40;;;;;;5053854;28;20017;-46
2021/06/10 09:57:55;;;;;;;12.80;8.77;;;29.40;77.70;;;;;;5053369;28;20047;-45
2021/06/10 10:00:27;;;;;;;10.32;8.70;;;29.10;77.10;;;;;;5035738;28;20025;-46
2021/06/10 10:02:53;;;;;;;11.02;9.60;;;28.80;76.40;;;;;;5053408;28;20043;-43
2021/06/10 10:05:25;;;;;;;10.68;9.57;;;28.60;77.90;;;;;;5053421;28;20025;-50
2021/06/10 10:07:52;;;;;;;12.10;9.10;;;28.40;78.10;;;;;;5053515;28;20075;-46
2021/06/10 10:10:18;;;;;;;12.82;9.32;;;28.30;77.20;;;;;;5053456;28;20488;-46
2021/06/10 10:12:47;;;;;;;7.63;6.88;;;28.20;77.70;;;;;;5053426;28;20021;-45
2021/06/10 10:15:13;;;;;;;10.52;8.70;;;28.30;77.80;;;;;;5053269;28;20108;-48
2021/06/10 10:17:39;;;;;;;9.13;8.18;;;28.40;75.20;;;;;;5053263;28;20403;-44
2021/06/10 10:20:07;;;;;;;10.75;9.65;;;28.40;76.50;;;;;;5052900;28;20021;-43
2021/06/10 10:22:35;;;;;;;8.43;7.72;;;28.40;77.10;;;;;;5053534;28;20108;-44
2021/06/10 10:25:01;;;;;;;8.63;7.35;;;28.50;77.80;;;;;;5053521;28;20480;-43
2021/06/10 10:27:27;;;;;;;8.38;6.78;;;28.50;80.10;;;;;;5053132;28;20495;-45
2021/06/10 10:29:54;;;;;;;8.30;7.45;;;28.60;78.60;;;;;;5037489;28;20029;-45
2021/06/10 10:32:23;;;;;;;10.77;8.00;;;28.60;82.20;;;;;;5055492;28;20028;-44
2021/06/10 10:34:49;;;;;;;9.52;8.68;;;28.50;82.80;;;;;;5054040;28;20029;-47
2021/06/10 10:37:26;;;;;;;10.98;9.45;;;28.40;83.50;;;;;;5053308;28;20029;-44
2021/06/10 10:39:54;;;;;;;9.50;8.52;;;28.30;83.20;;;;;;5053242;28;20033;-43
2021/06/10 10:42:35;;;;;;;9.20;8.40;;;28.10;84.00;;;;;;5053124;28;20037;-44
2021/06/10 10:45:34;;;;;;;10.73;9.77;;;27.80;84.00;;;;;;5052396;28;20029;-47
2021/06/10 10:48:08;;;;;;;9.13;8.32;;;27.30;86.40;;;;;;5052025;28;20040;-45
2021/06/10 10:50:48;;;;;;;10.95;10.02;;;27.30;86.60;;;;;;5052399;28;20045;-48
2021/06/10 10:53:19;;;;;;;16.55;10.27;;;27.00;86.10;;;;;;5052825;28;20127;-43
2021/06/10 10:56:03;;;;;;;8.02;7.22;;;27.00;82.30;;;;;;5052675;28;20450;-46
2021/06/10 10:58:28;;;;;;;9.35;8.25;;;26.80;84.30;;;;;;5052019;28;20036;-44
2021/06/10 11:01:01;;;;;;;7.78;7.13;;;26.60;83.30;;;;;;5052249;28;20037;-47
2021/06/10 11:03:39;;;;;;;8.70;7.80;;;26.50;82.30;;;;;;5052406;28;20056;-44
2021/06/10 11:06:28;;;;;;;10.82;7.97;;;26.20;82.70;;;;;;5052339;28;20400;-53
2021/06/10 11:08:57;;;;;;;11.07;10.00;;;26.20;84.00;;;;;;5040867;28;20064;-50
2021/06/10 11:11:22;;;;;;;7.90;7.15;;;26.10;84.70;;;;;;5052800;28;20080;-47
2021/06/10 11:13:48;;;;;;;9.63;7.28;;;26.10;85.70;;;;;;5052070;28;20057;-48
2021/06/10 11:16:15;;;;;;;10.68;8.50;;;26.00;86.20;;;;;;5053543;28;20028;-50
2021/06/10 11:18:52;;;;;;;11.73;9.30;;;26.00;86.30;;;;;;5054301;28;20099;-45
2021/06/10 11:21:39;;;;;;;11.65;8.32;;;25.90;86.50;;;;;;5055335;28;20025;-44
2021/06/10 11:24:16;;;;;;;11.50;9.48;;;26.00;87.10;;;;;;5055991;28;20033;-49
2021/06/10 11:26:59;;;;;;;11.82;9.50;;;26.00;86.40;;;;;;5056286;28;20021;-44
2021/06/10 11:29:25;;;;;;;10.65;9.27;;;26.20;85.60;;;;;;5051807;28;20555;-45
2021/06/10 11:32:20;;;;;;;9.68;8.63;;;26.30;85.40;;;;;;5051828;28;20067;-49
2021/06/10 11:34:50;;;;;;;11.50;8.93;;;26.30;85.70;;;;;;5052146;28;20094;-41
2021/06/10 11:37:19;;;;;;;9.82;8.82;;;26.40;86.00;;;;;;5051851;28;20041;-43
2021/06/10 11:39:45;;;;;;;9.50;8.68;;;26.50;84.70;;;;;;5051821;28;20037;-46
2021/06/10 11:42:11;;;;;;;12.05;10.05;;;26.50;84.10;;;;;;5051938;28;20179;-49
2021/06/10 11:44:45;;;;;;;11.10;9.20;;;26.50;83.30;;;;;;5051011;28;20094;-46
2021/06/10 11:47:29;;;;;;;10.37;9.37;;;26.60;84.50;;;;;;5051740;28;20021;-45
2021/06/10 11:49:55;;;;;;;8.57;7.77;;;26.70;85.10;;;;;;5051592;28;20035;-53
2021/06/10 11:52:20;;;;;;;10.07;9.02;;;26.70;84.00;;;;;;5052865;28;20480;-46
2021/06/10 11:55:04;;;;;;;13.05;9.15;;;26.70;84.60;;;;;;5052079;28;20103;-44
2021/06/10 11:57:30;;;;;;;10.63;9.52;;;26.70;83.10;;;;;;5051566;28;20021;-45
2021/06/10 11:59:56;;;;;;;17.40;11.27;;;26.70;82.50;;;;;;5050882;28;20031;-49
2021/06/10 12:02:25;;;;;;;10.65;9.63;;;26.70;82.20;;;;;;5052167;28;20037;-51
2021/06/10 12:05:05;;;;;;;14.70;10.35;;;26.70;82.50;;;;;;5051244;28;20036;-46
2021/06/10 12:07:31;;;;;;;8.23;7.43;;;26.80;80.00;;;;;;5051431;28;20048;-50
2021/06/10 12:09:58;;;;;;;10.38;9.32;;;26.70;84.10;;;;;;5051510;28;20059;-47
2021/06/10 12:12:32;;;;;;;22.15;9.70;;;26.80;81.50;;;;;;5051449;28;20017;-46
2021/06/10 12:14:57;;;;;;;7.78;7.18;;;26.70;81.30;;;;;;5051616;28;20547;-49
2021/06/10 12:17:23;;;;;;;8.48;7.68;;;26.70;80.60;;;;;;5051303;28;20113;-49
2021/06/10 12:20:15;;;;;;;8.68;7.85;;;26.60;76.50;;;;;;5050657;28;20025;-43
2021/06/10 12:22:43;;;;;;;6.40;5.90;;;26.70;76.00;;;;;;5051532;28;20107;-45
2021/06/10 12:25:25;;;;;;;8.18;6.95;;;26.70;76.00;;;;;;5051894;28;20028;-45
2021/06/10 12:27:56;;;;;;;9.38;7.45;;;26.70;78.60;;;;;;5051893;28;20021;-46
2021/06/10 12:30:23;;;;;;;10.65;7.65;;;26.80;78.20;;;;;;5051352;28;20086;-48
2021/06/10 12:32:49;;;;;;;9.82;8.30;;;26.90;76.40;;;;;;5051487;28;20051;-42
2021/06/10 12:35:21;;;;;;;9.23;6.97;;;27.00;75.30;;;;;;5051894;28;20017;-46
2021/06/10 12:37:52;;;;;;;9.35;7.90;;;26.90;76.60;;;;;;5051695;28;20049;-44